Flight Track Log - Related Links

Times and Time Zones

All times are in EDT time to prevent confusion due to time zone crossing. See the AWE914 flight status page for this flight to view local times or setup timezone preferences in your user account.


Time Position Orientation Groundspeed Altitude Reporting Facility
EDT Latitude Longitude Course Direction KTS MPH feet Rate Location/Type
Thu 03:07:28 AM 33.4333 -111.9833 67° East 130 150 1,800  Level Phoenix TRACON
Thu 03:08:34 AM 33.4333 -111.9333 90° East 176 203 3,500 1,600 Climbing Phoenix TRACON
Thu 03:09:28 AM 33.4500 -111.8500 76° East 250 288 5,000 1,820 Climbing Phoenix TRACON
Thu 03:10:03 AM 33.4714 -111.8183 51° Northeast 277 319 6,200 2,589 Climbing Albuquerque Center
Thu 03:11:03 AM 33.5144 -111.7372 58° Northeast 288 331 9,100 2,450 Climbing Albuquerque Center
Thu 03:12:00 AM 33.7401 -111.1050 67° East  Level FlightAware Approximate
Thu 03:12:03 AM 33.5481 -111.6461 66° East 300 345 11,100  Level Albuquerque Center
Thu 03:13:04 AM 33.5878 -111.5403 66° East 351 404 13,200 2,380 Climbing Albuquerque Center
Thu 03:14:04 AM 33.6281 -111.4319 66° East 358 412 15,900 2,450 Climbing Albuquerque Center
Thu 03:15:04 AM 33.6686 -111.3231 66° East 360 414 18,100 2,033 Climbing Albuquerque Center
Thu 03:16:05 AM 33.7103 -111.2089 66° East 373 429 20,000 1,835 Climbing Albuquerque Center
Thu 03:17:05 AM 33.7522 -111.0897 67° East 387 445 21,800 1,700 Climbing Albuquerque Center
Thu 03:18:05 AM 33.7956 -110.9664 67° East 400 460 23,400 1,587 Climbing Albuquerque Center
Thu 03:19:06 AM 33.8406 -110.8394 67° East 410 472 25,000 1,537 Climbing Albuquerque Center
Thu 03:20:06 AM 33.8858 -110.7106 67° East 416 479 26,500 1,350 Climbing Albuquerque Center
Thu 03:21:06 AM 33.9339 -110.5778 66° East 427 491 27,700 1,300 Climbing Albuquerque Center
Thu 03:22:06 AM 33.9803 -110.4425 68° East 436 502 29,100 1,190 Climbing Albuquerque Center
Thu 03:23:07 AM 34.0336 -110.2944 66° East 446 513 30,100 1,091 Climbing Albuquerque Center
Thu 03:24:07 AM 34.0836 -110.1522 67° East 458 527 31,300 1,100 Climbing Albuquerque Center
Thu 03:25:07 AM 34.1328 -110.0114 67° East 460 529 32,300 1,240 Climbing Albuquerque Center
Thu 03:26:08 AM 34.1889 -109.8492 67° East 466 536 33,800 1,190 Climbing Albuquerque Center
Thu 03:27:08 AM 34.2356 -109.7128 67° East 463 533 34,700 950 Climbing Albuquerque Center
Thu 03:28:08 AM 34.2828 -109.5764 67° East 461 531 35,700 992 Climbing Albuquerque Center
Thu 03:29:09 AM 34.3292 -109.4389 68° East 462 532 36,700 1,091 Climbing Albuquerque Center
Thu 03:30:09 AM 34.3836 -109.2786 68° East 462 532 37,900 850 Climbing Albuquerque Center
Thu 03:31:09 AM 34.4303 -109.1433 67° East 459 528 38,400 550 Climbing Albuquerque Center
Thu 03:32:09 AM 34.4761 -109.0067 68° East 459 528 39,000 298 Climbing Albuquerque Center
Thu 03:33:10 AM 34.5300 -108.8439 68° East 463 533 39,000  Level Albuquerque Center
Thu 03:34:10 AM 34.5761 -108.7069 68° East 462 532 39,000  Level Albuquerque Center
Thu 03:35:10 AM 34.6222 -108.5683 68° East 463 533 39,000  Level Albuquerque Center
Thu 03:36:11 AM 34.6756 -108.4075 68° East 462 532 39,000  Level Albuquerque Center
Thu 03:37:11 AM 34.7214 -108.2686 68° East 463 533 39,000  Level Albuquerque Center
Thu 03:38:11 AM 34.7644 -108.1369 68° East 464 534 39,000  Level Albuquerque Center
Thu 03:39:12 AM 34.8133 -107.9911 68° East 465 535 39,000  Level Albuquerque Center
Thu 03:40:12 AM 34.8594 -107.8442 69° East 464 534 39,000  Level Albuquerque Center
Thu 03:41:12 AM 34.9067 -107.6961 69° East 469 540 39,000  Level Albuquerque Center
Thu 03:42:12 AM 34.9536 -107.5492 69° East 468 539 39,000  Level Albuquerque Center
Thu 03:43:13 AM 35.0075 -107.3856 68° East 470 541 39,000  Level Albuquerque Center
Thu 03:44:13 AM 35.0542 -107.2372 69° East 469 540 39,000  Level Albuquerque Center
Thu 03:45:13 AM 35.1044 -107.0786 69° East 467 537 39,000  Level Albuquerque Center
Thu 03:46:14 AM 35.1519 -106.9325 68° East 463 533 39,000  Level Albuquerque Center
Thu 03:47:14 AM 35.1978 -106.7850 69° East 464 534 39,000  Level Albuquerque Center
Thu 03:48:14 AM 35.2453 -106.6372 68° East 465 535 39,000  Level Albuquerque Center
Thu 03:49:14 AM 35.2881 -106.4919 70° East 465 535 39,000  Level Albuquerque Center
Thu 03:51:03 AM 35.3694 -106.2283 69° East 463 533 39,000  Level Albuquerque Center
Thu 03:52:03 AM 35.4156 -106.0911 68° East 465 535 39,000  Level Albuquerque Center
Thu 03:53:05 AM 35.4600 -105.9433 70° East 464 534 39,000  Level Albuquerque Center
Thu 03:54:07 AM 35.5031 -105.7906 71° East 466 536 39,000  Level Albuquerque Center
Thu 03:55:04 AM 35.5478 -105.6414 70° East 468 539 39,000 51 Level Albuquerque Center
Thu 03:56:04 AM 35.5939 -105.4903 69° East 466 536 39,100  Climbing Albuquerque Center
Thu 03:57:05 AM 35.6400 -105.3392 69° East 467 537 39,000 -50 Descending Albuquerque Center
Thu 03:58:05 AM 35.6844 -105.1903 70° East 462 532 39,000  Level Albuquerque Center
Thu 03:59:06 AM 35.7281 -105.0394 70° East 462 532 39,000  Level Albuquerque Center
Thu 04:00:05 AM 35.7725 -104.8897 70° East 461 531 39,000  Level Albuquerque Center
Thu 04:01:05 AM 35.8144 -104.7422 71° East 454 522 39,000  Level Albuquerque Center
Thu 04:02:19 AM 35.8658 -104.5656 70° East 461 531 39,000  Level Albuquerque Center
Thu 04:03:21 AM 35.9103 -104.4131 70° East 464 534 39,000  Level Albuquerque Center
Thu 04:04:18 AM 35.9536 -104.2619 70° East 463 533 39,000  Level Albuquerque Center
Thu 04:05:20 AM 35.9972 -104.1103 70° East 462 532 39,000  Level Albuquerque Center
Thu 04:06:19 AM 36.0408 -103.9581 70° East 464 534 39,000  Level Albuquerque Center
Thu 04:07:20 AM 36.0842 -103.8033 71° East 468 539 39,000  Level Albuquerque Center
Thu 04:08:21 AM 36.1269 -103.6503 71° East 468 539 39,000  Level Albuquerque Center
Thu 04:09:22 AM 36.1639 -103.5242 70° East 465 535 39,000  Level Albuquerque Center
Thu 04:10:22 AM 36.2061 -103.3681 71° East 471 542 39,000  Level Albuquerque Center
Thu 04:11:22 AM 36.2489 -103.2128 71° East 471 542 39,000  Level Albuquerque Center
Thu 04:12:23 AM 36.2911 -103.0575 71° East 471 542 39,000  Level Albuquerque Center
Thu 04:13:20 AM 36.3375 -102.8861 71° East 471 542 39,000  Level Albuquerque Center
Thu 04:14:22 AM 36.3803 -102.7308 71° East 474 545 39,000  Level Albuquerque Center
Thu 04:15:23 AM 36.4217 -102.5750 72° East 474 545 39,000  Level Albuquerque Center
Thu 04:16:21 AM 36.4636 -102.4183 72° East 477 549 39,000  Level Albuquerque Center
Thu 04:17:21 AM 36.5047 -102.2625 72° East 476 548 39,000  Level Albuquerque Center
Thu 04:18:22 AM 36.5464 -102.1086 71° East 472 543 39,000  Level Albuquerque Center
Thu 04:19:22 AM 36.5872 -101.9536 72° East 471 542 39,000  Level Albuquerque Center
Thu 04:20:22 AM 36.6294 -101.7947 72° East 473 544 39,000  Level Albuquerque Center
Thu 04:21:22 AM 36.6675 -101.6447 72° East 475 547 39,000  Level Albuquerque Center
Thu 04:21:57 AM 36.6928 -101.5431 73° East 478 550 39,000  Level Kansas City Center
Thu 04:23:01 AM 36.7322 -101.3922 72° East 478 550 39,000  Level Kansas City Center
Thu 04:24:01 AM 36.7708 -101.2414 72° East 479 551 39,000  Level Kansas City Center
Thu 04:25:00 AM 36.8147 -101.0667 73° East 476 548 39,000  Level Kansas City Center
Thu 04:26:01 AM 36.8536 -100.9169 72° East 476 548 39,000  Level Kansas City Center
Thu 04:27:02 AM 36.8917 -100.7661 72° East 477 549 39,000  Level Kansas City Center
Thu 04:28:02 AM 36.9358 -100.5889 73° East 480 552 39,000  Level Kansas City Center
Thu 04:29:03 AM 36.9739 -100.4369 73° East 482 555 39,000  Level Kansas City Center
Thu 04:30:04 AM 37.0108 -100.2847 73° East 480 552 39,000  Level Kansas City Center
Thu 04:31:04 AM 37.0550 -100.1072 73° East 481 554 39,000  Level Kansas City Center
Thu 04:32:04 AM 37.0917 -99.9550 73° East 480 552 39,000  Level Kansas City Center
Thu 04:33:07 AM 37.1292 -99.8019 73° East 481 554 39,000  Level Kansas City Center
Thu 04:34:08 AM 37.1719 -99.6217 73° East 484 557 39,000  Level Kansas City Center
Thu 04:35:06 AM 37.2089 -99.4683 73° East 482 555 39,000  Level Kansas City Center
Thu 04:36:09 AM 37.2444 -99.3169 74° East 488 562 39,000  Level Kansas City Center
Thu 04:37:10 AM 37.2822 -99.1553 74° East 484 557 39,000  Level Kansas City Center
Thu 04:38:10 AM 37.3211 -98.9869 74° East 485 558 39,000  Level Kansas City Center
Thu 04:39:09 AM 37.3586 -98.8233 74° East 487 560 39,000  Level Kansas City Center
Thu 04:40:10 AM 37.3964 -98.6600 74° East 487 560 39,000  Level Kansas City Center
Thu 04:41:10 AM 37.4344 -98.4972 74° East 487 560 39,000  Level Kansas City Center
Thu 04:42:13 AM 37.4706 -98.3361 74° East 485 558 39,000  Level Kansas City Center
Thu 04:43:14 AM 37.5072 -98.1761 74° East 481 554 39,000  Level Kansas City Center
Thu 04:44:11 AM 37.5489 -97.9850 75° East 477 549 39,000  Level Kansas City Center
Thu 04:45:15 AM 37.5836 -97.8258 75° East 477 549 39,000  Level Kansas City Center
Thu 04:46:12 AM 37.6206 -97.6644 74° East 484 557 39,000  Level Kansas City Center
Thu 04:47:13 AM 37.6567 -97.4919 75° East 481 554 39,000 49 Level Kansas City Center
Thu 04:48:15 AM 37.6925 -97.3392 73° East 490 564 39,100  Climbing Kansas City Center
Thu 04:49:15 AM 37.7281 -97.1744 75° East 489 563 39,000 -50 Descending Kansas City Center
Thu 04:50:15 AM 37.7628 -97.0114 75° East 485 558 39,000 49 Level Kansas City Center
Thu 04:51:17 AM 37.7981 -96.8469 75° East 485 558 39,100  Climbing Kansas City Center
Thu 04:52:19 AM 37.8325 -96.6858 75° East 479 551 39,000 -100 Descending Kansas City Center
Thu 04:53:17 AM 37.8661 -96.5267 75° East 471 542 38,900  Descending Kansas City Center
Thu 04:54:18 AM 37.8994 -96.3672 75° East 470 541 39,000 48 Climbing Kansas City Center
Thu 04:55:21 AM 37.9319 -96.2075 75° East 470 541 39,000  Level Kansas City Center
Thu 04:56:21 AM 37.9661 -96.0439 75° East 467 537 39,000  Level Kansas City Center
Thu 04:57:22 AM 38.0019 -95.8619 76° East 474 545 39,000  Level Kansas City Center
Thu 04:58:20 AM 38.0339 -95.7067 75° East 477 549 39,000  Level Kansas City Center
Thu 04:59:21 AM 38.0647 -95.5517 76° East 475 547 39,000  Level Kansas City Center
Thu 05:00:24 AM 38.1003 -95.3697 76° East 476 548 39,000  Level Kansas City Center
Thu 05:01:24 AM 38.1319 -95.2136 75° East 478 550 39,000  Level Kansas City Center
Thu 05:02:24 AM 38.1678 -95.0300 76° East 480 552 39,000  Level Kansas City Center
Thu 05:03:26 AM 38.1975 -94.8711 77° East 483 556 39,000 50 Level Kansas City Center
Thu 05:04:24 AM 38.2228 -94.7061 79° East 490 564 39,100  Climbing Kansas City Center
Thu 05:05:27 AM 38.2469 -94.5150 81° East 493 567 39,000 -49 Descending Kansas City Center
Thu 05:06:26 AM 38.2692 -94.3517 80° East 492 566 39,000  Level Kansas City Center
Thu 05:07:26 AM 38.2917 -94.1892 80° East 491 565 39,000  Level Kansas City Center
Thu 05:08:28 AM 38.3150 -94.0147 80° East 489 563 39,000  Level Kansas City Center
Thu 05:09:27 AM 38.3375 -93.8447 80° East 487 560 39,000  Level Kansas City Center
Thu 05:10:29 AM 38.3611 -93.6736 80° East 489 563 39,000  Level Kansas City Center
Thu 05:11:28 AM 38.3828 -93.5036 81° East 487 560 39,000  Level Kansas City Center
Thu 05:12:31 AM 38.4058 -93.3325 80° East 487 560 39,000  Level Kansas City Center
Thu 05:13:30 AM 38.4281 -93.1622 80° East 485 558 39,000  Level Kansas City Center
Thu 05:14:32 AM 38.4497 -92.9933 81° East 483 556 39,000 -634 Level Kansas City Center
Thu 05:15:33 AM 38.4714 -92.8236 81° East 481 554 37,700 -1,966 Descending Kansas City Center
Thu 05:16:31 AM 38.4925 -92.6517 81° East 485 558 35,100 -2,850 Descending Kansas City Center
Thu 05:17:33 AM 38.5136 -92.4803 81° East 485 558 32,000 -3,048 Descending Kansas City Center
Thu 05:18:35 AM 38.5336 -92.3078 82° East 486 559 28,800 -2,829 Descending Kansas City Center
Thu 05:19:36 AM 38.5539 -92.1372 81° East 484 557 26,200 -2,492 Descending Kansas City Center
Thu 05:20:33 AM 38.5714 -91.9761 82° East 464 534 23,900 -2,380 Descending Kansas City Center
Thu 05:21:37 AM 38.5897 -91.8233 81° East 446 513 21,400 -2,281 Descending Kansas City Center
Thu 05:22:34 AM 38.6061 -91.6764 82° East 433 498 19,300 -2,182 Descending Kansas City Center
Thu 05:23:38 AM 38.6228 -91.5319 82° East 420 483 17,000 -2,129 Descending Kansas City Center
Thu 05:24:38 AM 38.6381 -91.3922 82° East 409 471 14,900 -2,050 Descending Kansas City Center
Thu 05:25:38 AM 38.6550 -91.2586 81° East 399 459 12,900 -1,900 Descending Kansas City Center
Thu 05:26:38 AM 38.6689 -91.1275 82° East 386 444 11,100 -1,426 Descending Kansas City Center
Thu 05:27:40 AM 38.6814 -91.0039 83° East 363 418 10,000 -537 Descending Kansas City Center
Thu 05:28:41 AM 38.6950 -90.8789 82° East 357 411 10,000  Level Kansas City Center
Thu 05:29:42 AM 38.7036 -90.7533 85° East 356 410 10,000 -545 Level Kansas City Center
Thu 05:30:42 AM 38.6864 -90.6442 101° East 322 371 8,900 -1,339 Descending Kansas City Center
Thu 05:31:43 AM 38.6661 -90.5197 102° East 306 352 7,300 -1,438 Descending Kansas City Center
Thu 05:32:43 AM 38.6486 -90.4231 103° East 293 337 6,000 -1,160 Descending Kansas City Center
Thu 05:33:42 AM 38.6350 -90.3397 102° East 277 319 5,000 -807 Descending Kansas City Center
Thu 05:34:42 AM 38.6211 -90.2572 102° East 245 282 4,400 -780 Descending Kansas City Center
Thu 05:35:45 AM 38.6578 -90.2211 38° Northeast 204 235 3,400 -1,082 Descending Kansas City Center
Thu 05:36:44 AM 38.6956 -90.2525 327° Northwest 185 213 2,200 -1,017 Descending Kansas City Center
Thu 05:37:43 AM 38.7167 -90.2953 302° West 162 186 1,400 -700 Descending Kansas City Center
Thu 05:38:44 AM 38.7347 -90.3303 303° West 137 158 800 -344 Descending Kansas City Center
Thu 05:39:45 AM 38.7528 -90.3664 303° West 134 154 700 -98 Descending Kansas City Center

Login

Don't have an account? Register now (free) for customized features, flight alerts, and more!